Time;durP1;ratioP1;P1;durP2;ratioP2;P2;SDS_P1;SDS_P2;PMS_P1;PMS_P2;Temp;Humidity;BMP_temperature;BMP_pressure;BME280_temperature;BME280_humidity;BME280_pressure;Samples;Min_cycle;Max_cycle;Signal;HPM_P1;HPM_P2
2022/12/24 01:13:06;;;;;;;35.10;17.60;;;;;;;6.67;100.00;100198.84;105923;1300;548271;-62
2022/12/24 01:15:52;;;;;;;36.30;17.30;;;;;;;9.90;96.33;100166.08;106164;1302;23708;-62
2022/12/24 01:18:19;;;;;;;38.50;17.90;;;;;;;10.51;91.26;100159.67;104832;1301;1002558;-62
2022/12/24 01:20:45;;;;;;;31.90;17.70;;;;;;;10.88;88.66;100157.67;106261;1296;21956;-62
2022/12/24 01:23:10;;;;;;;30.50;17.20;;;;;;;11.13;86.47;100156.02;106203;1301;21954;-62
2022/12/24 01:25:37;;;;;;;22.80;13.80;;;;;;;11.13;84.81;100156.55;105889;1300;324876;-63
2022/12/24 01:28:05;;;;;;;19.40;11.80;;;;;;;11.03;84.17;100160.22;106350;1299;21954;-60
2022/12/24 01:30:31;;;;;;;19.40;12.60;;;;;;;10.90;84.50;100166.43;106414;1300;22036;-62
2022/12/24 01:32:57;;;;;;;18.20;11.30;;;;;;;10.91;84.34;100164.48;106759;1300;21954;-63
2022/12/24 01:35:22;;;;;;;37.30;20.40;;;;;;;10.98;84.19;100164.89;106841;1295;21984;-63
2022/12/24 01:37:49;;;;;;;23.80;13.40;;;;;;;11.05;83.70;100169.33;106804;1299;21961;-62
2022/12/24 01:45:58;;;;;;;14.10;8.40;;;;;;;11.24;81.29;100170.22;106512;1300;23789;-62
2022/12/24 01:48:34;;;;;;;16.10;10.00;;;;;;;11.21;80.60;100170.27;106413;1295;23610;-62
2022/12/24 01:51:03;;;;;;;17.60;10.20;;;;;;;11.20;80.73;100167.84;106722;1299;21954;-63
2022/12/24 01:53:29;;;;;;;19.00;11.50;;;;;;;11.24;80.99;100159.86;106503;1300;21956;-62
2022/12/24 01:55:55;;;;;;;22.30;11.60;;;;;;;11.29;81.02;100158.35;106394;1298;21963;-62
2022/12/24 01:58:20;;;;;;;24.50;12.80;;;;;;;11.35;80.70;100157.02;106433;1300;21958;-63
2022/12/24 02:00:46;;;;;;;16.90;9.50;;;;;;;11.46;80.20;100158.39;106519;1299;21963;-62
2022/12/24 02:03:12;;;;;;;14.90;9.20;;;;;;;11.54;79.10;100155.59;106790;1300;21979;-62
2022/12/24 02:05:46;;;;;;;17.10;9.60;;;;;;;11.56;78.37;100153.27;106480;1301;21958;-63
2022/12/24 02:08:13;;;;;;;12.30;8.30;;;;;;;11.56;78.11;100152.58;106765;1293;21957;-62
2022/12/24 02:10:38;;;;;;;20.80;10.90;;;;;;;11.54;77.79;100146.46;106582;1300;21971;-63
2022/12/24 02:13:04;;;;;;;18.50;10.40;;;;;;;11.54;77.57;100147.70;106397;1300;21958;-62
2022/12/24 02:15:36;;;;;;;12.60;7.50;;;;;;;11.50;77.00;100146.19;106324;1291;21960;-63
2022/12/24 02:18:14;;;;;;;10.70;7.00;;;;;;;11.44;76.65;100142.79;106714;1300;21957;-63
2022/12/24 02:21:03;;;;;;;12.40;7.50;;;;;;;11.41;76.35;100141.81;106703;1299;22062;-63
2022/12/24 02:24:04;;;;;;;13.40;8.10;;;;;;;11.36;76.41;100135.92;106394;1300;21958;-62
2022/12/24 02:26:33;;;;;;;13.80;8.10;;;;;;;11.39;76.54;100138.85;106015;1300;21967;-61
2022/12/24 02:29:06;;;;;;;13.90;7.50;;;;;;;11.41;76.87;100139.17;106335;1300;21956;-62
2022/12/24 02:31:35;;;;;;;11.90;7.40;;;;;;;11.40;76.73;100138.14;106562;1288;22008;-62
2022/12/24 02:34:09;;;;;;;12.10;7.70;;;;;;;11.42;76.09;100140.91;106548;1297;21940;-63
2022/12/24 02:36:39;;;;;;;14.70;7.90;;;;;;;11.32;75.83;100143.36;106487;1300;21947;-63
2022/12/24 02:39:09;;;;;;;14.80;7.10;;;;;;;11.27;76.04;100142.40;106681;1300;21959;-62
2022/12/24 02:44:25;;;;;;;13.20;7.70;;;;;;;11.32;76.27;100139.86;106463;1300;21942;-62
2022/12/24 02:46:50;;;;;;;12.60;6.70;;;;;;;11.27;76.33;100145.92;106288;1300;22102;-62
2022/12/24 02:49:16;;;;;;;9.60;6.80;;;;;;;11.17;76.57;100146.83;106143;1297;21960;-63
2022/12/24 02:51:42;;;;;;;14.10;8.50;;;;;;;11.24;76.20;100141.23;106410;1293;21964;-62
2022/12/24 02:54:08;;;;;;;13.20;7.80;;;;;;;11.21;75.80;100142.18;106532;1300;21966;-63
2022/12/24 02:56:59;;;;;;;11.50;7.20;;;;;;;11.13;75.61;100143.04;106245;1300;21999;-62
2022/12/24 02:59:59;;;;;;;8.80;5.80;;;;;;;11.14;75.02;100143.70;106361;1300;21964;-62
2022/12/24 03:02:53;;;;;;;9.90;5.80;;;;;;;11.03;74.57;100145.84;106380;1300;21952;-61
2022/12/24 03:05:30;;;;;;;8.70;4.90;;;;;;;10.96;74.49;100145.27;106497;1297;21960;-63
2022/12/24 03:08:13;;;;;;;7.40;5.40;;;;;;;10.91;74.30;100147.98;106585;1301;21953;-63
2022/12/24 03:10:54;;;;;;;7.40;5.40;;;;;;;10.87;74.03;100149.80;106522;1291;21979;-62
2022/12/24 03:13:20;;;;;;;9.00;5.50;;;;;;;10.82;73.77;100153.59;106502;1300;21952;-61
2022/12/24 03:15:45;;;;;;;7.50;4.70;;;;;;;10.77;73.66;100154.19;106494;1295;21964;-63
2022/12/24 03:18:12;;;;;;;7.80;5.10;;;;;;;10.71;73.48;100149.02;106399;1300;21989;-62
2022/12/24 03:20:41;;;;;;;6.20;4.00;;;;;;;10.65;73.32;100150.51;106299;1300;21997;-61
2022/12/24 03:23:07;;;;;;;10.60;5.30;;;;;;;10.67;72.92;100149.26;106356;1300;21954;-62
2022/12/24 03:25:41;;;;;;;9.00;5.70;;;;;;;10.69;72.67;100144.48;106323;1300;21973;-61
2022/12/24 03:28:07;;;;;;;8.20;5.80;;;;;;;10.67;72.54;100143.81;106548;1301;21960;-61
2022/12/24 03:30:32;;;;;;;10.00;6.20;;;;;;;10.64;72.27;100144.57;106551;1299;21962;-64
2022/12/24 03:32:58;;;;;;;6.80;4.70;;;;;;;10.57;71.98;100146.44;106385;1300;21960;-63
2022/12/24 03:35:24;;;;;;;6.60;4.30;;;;;;;10.52;71.72;100146.52;106469;1291;22007;-61
2022/12/24 03:37:51;;;;;;;8.20;5.20;;;;;;;10.48;71.52;100144.46;106398;1300;21958;-61
2022/12/24 03:40:17;;;;;;;7.50;4.90;;;;;;;10.42;71.49;100143.33;106404;1300;21967;-64
2022/12/24 03:42:43;;;;;;;8.30;5.30;;;;;;;10.39;72.04;100141.44;106335;1298;21967;-64
2022/12/24 03:45:09;;;;;;;8.40;5.60;;;;;;;10.42;72.17;100139.30;106347;1300;21952;-61
2022/12/24 03:47:35;;;;;;;9.20;5.90;;;;;;;10.46;72.41;100137.30;106496;1300;21951;-63
2022/12/24 03:50:00;;;;;;;9.70;5.40;;;;;;;10.49;72.30;100139.36;106513;1297;22427;-61
2022/12/24 03:52:27;;;;;;;7.80;4.80;;;;;;;10.52;72.27;100143.54;106361;1300;21962;-64
2022/12/24 03:54:56;;;;;;;7.60;4.80;;;;;;;10.55;71.99;100145.06;106466;1300;21953;-61
2022/12/24 03:57:22;;;;;;;9.20;5.20;;;;;;;10.52;71.98;100150.73;106717;1300;21955;-64
2022/12/24 03:59:47;;;;;;;8.70;6.50;;;;;;;10.43;72.37;100148.04;106494;1300;21959;-63
2022/12/24 04:02:13;;;;;;;10.40;5.50;;;;;;;10.38;72.44;100147.91;106535;1300;21962;-61
2022/12/24 07:29:40;;;;;;;29.60;14.80;;;;;;;5.45;100.00;100227.38;104544;1310;1002259;-65
2022/12/24 07:32:05;;;;;;;36.60;20.50;;;;;;;8.58;98.94;100210.10;105538;1310;21976;-62
2022/12/24 07:34:32;;;;;;;38.80;22.90;;;;;;;9.21;93.24;100199.81;105572;1313;21966;-62
2022/12/24 07:36:58;;;;;;;31.60;19.80;;;;;;;9.50;90.01;100196.02;105571;1312;21965;-62
2022/12/24 07:39:24;;;;;;;30.80;18.40;;;;;;;9.72;88.05;100199.45;105584;1312;21989;-65
2022/12/24 07:41:52;;;;;;;28.30;17.00;;;;;;;9.90;86.98;100199.42;105433;1306;310538;-66
2022/12/24 07:44:18;;;;;;;24.10;15.60;;;;;;;10.05;86.04;100193.11;105737;1306;21957;-62
2022/12/24 07:46:44;;;;;;;18.90;11.80;;;;;;;10.22;85.19;100194.64;105651;1306;21970;-62
2022/12/24 07:49:10;;;;;;;20.50;12.70;;;;;;;10.42;84.34;100197.18;105666;1306;21963;-66
2022/12/24 07:51:36;;;;;;;18.60;10.90;;;;;;;10.61;83.75;100200.41;105759;1303;21964;-65
2022/12/24 07:54:03;;;;;;;15.10;9.80;;;;;;;10.71;83.20;100201.48;105675;1306;21948;-63
2022/12/24 07:56:30;;;;;;;22.20;10.80;;;;;;;10.89;83.14;100205.25;105721;1306;22442;-60
2022/12/24 07:58:56;;;;;;;20.70;10.40;;;;;;;11.15;84.08;100201.46;105633;1306;21978;-62
2022/12/24 08:01:23;;;;;;;17.20;10.10;;;;;;;11.40;83.74;100200.50;105695;1293;21985;-63
2022/12/24 08:03:53;;;;;;;16.60;10.90;;;;;;;11.54;82.71;100194.95;105633;1298;21961;-62
2022/12/24 08:06:20;;;;;;;14.40;9.30;;;;;;;11.50;81.54;100192.75;105727;1306;21960;-64
2022/12/24 08:08:48;;;;;;;17.00;10.60;;;;;;;11.44;81.28;100190.95;105687;1293;21961;-63
2022/12/24 08:11:14;;;;;;;13.40;8.90;;;;;;;11.65;82.17;100187.89;105760;1305;21968;-64
2022/12/24 08:13:39;;;;;;;14.10;9.60;;;;;;;11.78;81.86;100187.10;105724;1296;21969;-63
2022/12/24 08:16:06;;;;;;;13.90;9.10;;;;;;;11.83;80.62;100184.20;105012;1306;1003163;-63
2022/12/24 08:18:31;;;;;;;14.70;8.90;;;;;;;11.87;79.01;100179.56;105645;1306;21976;-63
2022/12/24 08:20:57;;;;;;;12.50;8.70;;;;;;;11.85;78.64;100178.00;105750;1306;21967;-64
2022/12/24 08:23:23;;;;;;;13.50;8.60;;;;;;;11.84;78.35;100174.52;105772;1306;22146;-64
2022/12/24 08:25:49;;;;;;;14.40;10.10;;;;;;;11.87;78.55;100170.77;105685;1306;21963;-63
2022/12/24 08:28:17;;;;;;;15.70;10.10;;;;;;;11.96;78.78;100173.40;105730;1306;21985;-63
2022/12/24 08:30:43;;;;;;;13.20;8.70;;;;;;;12.04;78.78;100171.13;105714;1302;21958;-64
2022/12/24 08:33:09;;;;;;;14.30;9.80;;;;;;;12.05;77.78;100171.64;105767;1306;22014;-64
2022/12/24 08:35:34;;;;;;;16.70;10.10;;;;;;;12.03;77.68;100170.45;105671;1304;22019;-63
2022/12/24 08:38:00;;;;;;;15.50;10.00;;;;;;;12.06;77.50;100165.10;105641;1304;21966;-64
2022/12/24 08:40:26;;;;;;;16.40;10.60;;;;;;;12.08;77.68;100161.73;105608;1306;22008;-63
2022/12/24 08:42:52;;;;;;;16.70;10.80;;;;;;;12.08;77.10;100158.73;105602;1306;21965;-66
2022/12/24 08:45:18;;;;;;;17.00;11.20;;;;;;;12.05;76.77;100153.88;105641;1302;22422;-66
2022/12/24 08:47:43;;;;;;;15.70;10.50;;;;;;;12.06;76.78;100151.04;106185;1306;21984;-66
2022/12/24 08:50:09;;;;;;;23.60;13.40;;;;;;;12.09;76.86;100148.86;105631;1306;21977;-65
2022/12/24 08:52:35;;;;;;;19.30;12.70;;;;;;;12.11;76.67;100146.52;105707;1306;21961;-65
2022/12/24 08:55:01;;;;;;;22.10;12.90;;;;;;;12.13;76.91;100143.31;105637;1306;22441;-64
2022/12/24 08:57:27;;;;;;;25.90;13.60;;;;;;;12.30;77.99;100136.06;105671;1306;21962;-66
2022/12/24 08:59:52;;;;;;;20.90;12.40;;;;;;;12.44;77.85;100135.76;105584;1306;21968;-65
2022/12/24 09:02:18;;;;;;;23.30;12.70;;;;;;;12.43;77.27;100136.28;105595;1306;21972;-63
2022/12/24 09:04:44;;;;;;;36.20;15.70;;;;;;;12.40;78.09;100141.83;105661;1302;22011;-64
2022/12/24 09:07:11;;;;;;;23.00;14.30;;;;;;;12.50;78.25;100143.15;105616;1306;21985;-64
2022/12/24 09:09:37;;;;;;;20.00;12.40;;;;;;;12.57;77.73;100142.30;105670;1306;21970;-65
2022/12/24 09:12:04;;;;;;;23.50;14.30;;;;;;;12.63;77.57;100135.27;105659;1306;21952;-65
2022/12/24 09:14:30;;;;;;;18.30;13.10;;;;;;;12.67;76.97;100135.02;105681;1297;23637;-63
2022/12/24 09:16:56;;;;;;;20.50;12.20;;;;;;;12.62;75.84;100134.97;105806;1305;21956;-62
2022/12/24 09:19:22;;;;;;;21.10;14.30;;;;;;;12.51;75.94;100139.10;105583;1308;21968;-62
2022/12/24 09:21:49;;;;;;;20.80;14.80;;;;;;;12.53;76.95;100136.95;105646;1306;22027;-62
2022/12/24 09:24:15;;;;;;;17.90;12.80;;;;;;;12.57;76.92;100134.91;105679;1308;21947;-63
2022/12/24 09:26:41;;;;;;;21.00;13.40;;;;;;;12.64;77.32;100126.80;105607;1304;21952;-64
2022/12/24 09:29:07;;;;;;;19.20;13.50;;;;;;;12.74;77.54;100121.46;105613;1306;22045;-63
2022/12/24 09:31:35;;;;;;;24.60;16.50;;;;;;;12.75;76.61;100117.39;105622;1309;21977;-64
2022/12/24 09:34:01;;;;;;;15.70;11.80;;;;;;;12.79;76.54;100117.48;105684;1307;21968;-65
2022/12/24 09:36:26;;;;;;;18.60;12.90;;;;;;;12.79;76.12;100115.18;105621;1300;22023;-63
2022/12/24 09:38:52;;;;;;;19.50;13.00;;;;;;;12.82;76.14;100120.04;105623;1306;22027;-63
2022/12/24 09:41:35;;;;;;;18.30;13.60;;;;;;;12.86;76.08;100119.39;105805;1306;21962;-63
2022/12/24 09:44:14;;;;;;;20.50;13.80;;;;;;;12.89;76.06;100113.52;105686;1306;21974;-64
2022/12/24 09:46:41;;;;;;;18.00;13.00;;;;;;;12.91;76.13;100103.41;105633;1306;22252;-64
2022/12/24 09:49:14;;;;;;;16.90;12.30;;;;;;;12.97;76.44;100098.51;105638;1307;22005;-65
2022/12/24 09:51:47;;;;;;;18.70;13.10;;;;;;;13.11;77.46;100093.02;105628;1306;24388;-64
2022/12/24 09:54:36;;;;;;;20.10;12.90;;;;;;;13.27;76.97;100093.30;105575;1306;21977;-64
2022/12/24 09:57:05;;;;;;;23.50;14.00;;;;;;;13.27;75.55;100095.60;105636;1307;23640;-64
2022/12/24 09:59:41;;;;;;;23.00;14.70;;;;;;;13.22;75.62;100094.31;105614;1301;21952;-65
2022/12/24 10:02:10;;;;;;;28.70;16.60;;;;;;;13.32;77.14;100083.64;105651;1306;21961;-66
2022/12/24 10:04:36;;;;;;;23.30;14.90;;;;;;;13.57;77.69;100079.27;105627;1298;21970;-65
2022/12/24 10:07:22;;;;;;;23.50;13.60;;;;;;;13.67;76.08;100073.48;105815;1306;21983;-67
2022/12/24 10:09:51;;;;;;;23.20;13.80;;;;;;;13.74;75.75;100074.16;105580;1306;21963;-67
2022/12/24 10:12:32;;;;;;;21.60;14.50;;;;;;;13.79;75.55;100073.48;105605;1306;21962;-66
2022/12/24 10:14:58;;;;;;;22.50;14.80;;;;;;;13.84;75.08;100071.41;105717;1306;21985;-66
2022/12/24 10:17:36;;;;;;;33.80;16.30;;;;;;;13.80;74.58;100070.48;105759;1306;21960;-61
2022/12/24 10:20:22;;;;;;;30.50;14.60;;;;;;;13.74;74.31;100072.57;105597;1305;22420;-67
2022/12/24 10:22:50;;;;;;;42.20;16.60;;;;;;;13.73;75.50;100071.02;105603;1306;21974;-67
2022/12/24 10:25:20;;;;;;;25.50;13.60;;;;;;;13.86;76.07;100073.98;105650;1304;21978;-67
2022/12/24 10:27:47;;;;;;;30.90;16.80;;;;;;;13.92;75.65;100072.39;105561;1306;21972;-68
2022/12/24 10:30:21;;;;;;;35.40;16.70;;;;;;;13.95;74.96;100071.23;104888;1309;1002069;-68
2022/12/24 10:32:48;;;;;;;36.40;18.10;;;;;;;14.00;75.49;100071.60;105728;1307;21958;-61
2022/12/24 10:35:13;;;;;;;33.40;21.10;;;;;;;14.10;75.27;100074.29;105524;1307;21968;-62
2022/12/24 10:37:40;;;;;;;29.70;15.70;;;;;;;14.17;74.80;100079.89;105771;1306;21970;-61
2022/12/24 10:40:12;;;;;;;24.20;14.60;;;;;;;14.23;74.59;100084.30;105634;1306;21956;-61
2022/12/24 10:42:43;;;;;;;20.10;14.90;;;;;;;14.20;74.68;100088.09;105585;1307;22158;-61
2022/12/24 10:45:12;;;;;;;;;;;;;;;14.22;75.03;100088.20;105682;1306;21941;-61
2022/12/24 10:47:38;;;;;;;21.90;14.70;;;;;;;14.21;74.20;100086.30;105582;1306;23078;-61
2022/12/24 10:50:28;;;;;;;17.00;13.20;;;;;;;14.24;74.63;100086.02;105548;1301;21954;-61
2022/12/24 10:52:59;;;;;;;17.80;12.90;;;;;;;14.21;73.87;100078.89;105624;1306;21994;-62
2022/12/24 10:55:27;;;;;;;20.60;14.40;;;;;;;14.17;73.70;100079.89;105631;1306;22148;-67
2022/12/24 10:58:00;;;;;;;19.40;13.80;;;;;;;14.14;73.51;100080.67;105632;1307;22431;-61
2022/12/24 11:00:26;;;;;;;18.20;14.20;;;;;;;14.15;73.98;100075.38;105654;1308;21959;-67
2022/12/24 11:03:10;;;;;;;49.60;32.70;;;;;;;14.22;74.35;100075.70;105651;1307;21968;-65
2022/12/24 11:05:36;;;;;;;34.90;24.20;;;;;;;14.29;74.30;100072.29;105830;1306;21973;-68
2022/12/24 11:08:13;;;;;;;26.10;18.30;;;;;;;14.32;73.70;100070.98;105750;1306;22034;-65
2022/12/24 11:10:40;;;;;;;21.20;15.00;;;;;;;14.34;73.76;100070.52;105826;1304;21975;-67
2022/12/24 11:13:25;;;;;;;21.20;15.80;;;;;;;14.37;73.52;100073.05;105669;1306;21975;-68
2022/12/24 11:16:03;;;;;;;23.70;15.40;;;;;;;14.46;74.58;100074.02;105661;1308;21980;-62
2022/12/24 11:18:29;;;;;;;19.70;15.10;;;;;;;14.64;75.17;100070.60;105684;1307;21967;-61
2022/12/24 11:20:58;;;;;;;19.70;15.50;;;;;;;14.83;76.02;100065.73;105617;1307;21957;-62
2022/12/24 11:23:24;;;;;;;27.50;20.90;;;;;;;15.06;75.12;100066.00;105541;1309;21967;-67
2022/12/24 11:25:49;;;;;;;25.70;19.50;;;;;;;15.16;74.21;100061.75;105699;1307;21964;-67
2022/12/24 11:28:24;;;;;;;31.40;23.10;;;;;;;15.25;74.14;100053.30;105634;1298;21977;-61
2022/12/24 11:31:18;;;;;;;27.50;19.50;;;;;;;15.50;73.56;100051.67;105727;1306;21960;-67
2022/12/24 11:33:48;;;;;;;19.10;15.40;;;;;;;15.72;72.41;100048.50;105677;1304;21968;-61
2022/12/24 11:36:14;;;;;;;20.00;14.20;;;;;;;15.76;72.40;100045.52;105929;1306;21958;-61
2022/12/24 11:38:40;;;;;;;19.80;15.00;;;;;;;15.83;71.91;100042.98;105658;1305;21965;-60
2022/12/24 11:41:10;;;;;;;19.90;15.90;;;;;;;15.88;72.31;100042.46;105621;1306;21964;-61
2022/12/24 11:43:43;;;;;;;21.80;15.70;;;;;;;15.95;72.25;100042.73;105721;1306;21962;-61
2022/12/24 11:46:14;;;;;;;27.10;21.10;;;;;;;16.01;72.20;100045.48;105628;1301;21954;-67
2022/12/24 11:48:40;;;;;;;18.20;15.40;;;;;;;16.02;71.58;100051.64;105599;1306;21981;-68
2022/12/24 11:51:16;;;;;;;17.00;12.80;;;;;;;15.98;70.08;100052.52;105565;1306;21957;-68
2022/12/24 11:53:47;;;;;;;18.80;14.10;;;;;;;15.94;69.30;100052.85;105633;1306;21971;-68
2022/12/24 11:56:44;;;;;;;17.70;14.50;;;;;;;15.85;67.36;100056.71;105660;1306;24302;-68
2022/12/24 11:59:37;;;;;;;19.20;14.40;;;;;;;15.69;65.76;100060.51;105803;1306;21976;-68
2022/12/24 12:02:31;;;;;;;20.40;15.20;;;;;;;15.61;67.47;100060.08;105648;1304;21958;-61
2022/12/24 12:04:59;;;;;;;19.40;14.50;;;;;;;15.58;65.98;100063.02;105735;1306;22312;-62
2022/12/24 12:07:34;;;;;;;18.10;14.30;;;;;;;15.66;66.60;100065.71;105668;1306;22138;-62
2022/12/24 12:10:05;;;;;;;19.10;14.50;;;;;;;15.73;67.45;100065.98;105659;1305;22434;-61
2022/12/24 12:12:36;;;;;;;19.60;13.80;;;;;;;15.79;67.06;100061.52;105600;1306;21956;-61
2022/12/24 12:15:40;;;;;;;16.30;11.90;;;;;;;15.84;67.46;100057.08;105639;1306;21957;-61
2022/12/24 12:18:16;;;;;;;;;;;;;;;15.90;66.37;100052.62;105581;1306;22705;-61
2022/12/24 12:20:47;;;;;;;17.30;12.70;;;;;;;15.92;65.37;100050.41;105619;1306;21976;-61
2022/12/24 12:23:31;;;;;;;;;;;;;;;15.99;66.33;100048.91;105621;1306;24546;-61
2022/12/24 12:26:00;;;;;;;16.90;13.50;;;;;;;16.13;67.63;100045.52;105745;1306;22011;-61
2022/12/24 12:28:55;;;;;;;18.00;14.20;;;;;;;16.28;66.61;100044.73;105628;1303;21961;-68
2022/12/24 12:31:25;;;;;;;19.30;13.00;;;;;;;16.36;67.09;100044.05;105573;1306;21962;-68
2022/12/24 12:33:56;;;;;;;14.80;10.80;;;;;;;16.40;67.16;100045.29;105613;1306;21966;-68
2022/12/24 12:36:42;;;;;;;16.80;12.40;;;;;;;16.42;66.57;100045.94;105622;1306;22241;-61
2022/12/24 12:39:10;;;;;;;18.30;13.60;;;;;;;16.46;66.44;100044.88;105649;1306;21954;-61
2022/12/24 12:41:50;;;;;;;20.20;14.30;;;;;;;16.40;65.14;100046.92;105677;1306;22210;-61
2022/12/24 12:44:24;;;;;;;17.90;14.20;;;;;;;16.30;64.23;100045.03;105731;1306;21976;-61
2022/12/24 12:47:18;;;;;;;16.30;12.60;;;;;;;16.28;65.13;100048.09;105778;1306;21967;-60
2022/12/24 12:50:07;;;;;;;17.80;13.30;;;;;;;16.26;65.83;100046.79;105602;1306;22240;-61
2022/12/24 12:52:55;;;;;;;17.20;12.80;;;;;;;16.22;64.44;100048.17;105616;1306;21953;-62
2022/12/24 12:55:39;;;;;;;21.70;14.30;;;;;;;16.18;65.36;100057.02;105618;1306;21957;-68
2022/12/24 12:58:16;;;;;;;17.80;13.50;;;;;;;16.14;63.81;100060.90;105619;1303;21960;-67
2022/12/24 13:00:44;;;;;;;16.90;12.90;;;;;;;16.07;63.62;100058.52;105715;1306;21972;-69
2022/12/24 16:33:43;;;;;;;86.80;55.30;;;;;;;6.77;100.00;100168.10;105193;1310;556756;-66
2022/12/24 16:36:09;;;;;;;98.90;58.90;;;;;;;9.28;90.80;100149.98;105434;1312;21976;-67
2022/12/24 16:39:21;;;;;;;104.40;62.10;;;;;;;9.90;83.93;100149.83;105224;1312;21979;-59
2022/12/24 16:41:21;;;;;;;97.50;57.60;;;;;;;10.26;80.79;100149.67;105493;1306;21966;-65
2022/12/24 16:43:49;;;;;;;165.40;69.10;;;;;;;10.39;79.15;100145.82;105571;1309;21978;-65
2022/12/24 16:46:15;;;;;;;114.90;54.60;;;;;;;10.46;77.97;100149.77;105366;1309;246132;-60
2022/12/24 16:48:45;;;;;;;91.90;46.60;;;;;;;10.56;77.31;100150.14;105599;1309;21967;-65
2022/12/24 16:51:11;;;;;;;72.30;36.90;;;;;;;10.65;76.76;100148.24;105611;1301;22069;-60
2022/12/24 16:53:37;;;;;;;62.40;35.10;;;;;;;10.62;76.29;100146.88;105583;1309;21977;-61
2022/12/24 16:56:03;;;;;;;62.20;34.80;;;;;;;10.53;76.52;100146.15;105633;1309;21970;-60
2022/12/24 16:58:29;;;;;;;69.50;41.60;;;;;;;10.75;75.48;100143.52;105669;1303;23170;-65
2022/12/24 17:00:55;;;;;;;70.70;42.40;;;;;;;10.81;75.10;100144.83;105762;1306;21957;-65
2022/12/24 17:03:21;;;;;;;71.00;40.10;;;;;;;10.84;74.60;100150.19;105755;1297;21961;-63
2022/12/24 17:05:47;;;;;;;68.40;39.70;;;;;;;10.84;73.92;100154.06;105660;1309;21970;-64
2022/12/24 17:08:13;;;;;;;61.00;37.40;;;;;;;10.81;73.91;100155.19;105626;1297;21967;-64
2022/12/24 17:10:40;;;;;;;58.50;37.80;;;;;;;10.82;73.72;100155.87;105646;1305;21956;-64
2022/12/24 17:13:24;;;;;;;67.00;43.40;;;;;;;10.89;73.45;100160.13;105334;1306;21972;-59
2022/12/24 17:15:50;;;;;;;131.40;84.30;;;;;;;10.91;73.03;100159.38;105753;1299;21959;-60
2022/12/24 17:18:16;;;;;;;63.70;43.30;;;;;;;10.94;72.84;100154.42;105710;1306;21961;-64
2022/12/24 17:20:42;;;;;;;51.30;33.10;;;;;;;10.94;72.56;100148.30;105585;1309;21997;-65
2022/12/24 17:23:07;;;;;;;43.90;28.80;;;;;;;10.92;72.40;100144.80;105649;1298;21985;-64
2022/12/24 17:25:35;;;;;;;42.70;27.60;;;;;;;10.95;72.13;100151.42;105632;1307;21976;-61
2022/12/24 17:28:00;;;;;;;42.90;28.40;;;;;;;10.95;72.06;100153.52;105764;1307;21970;-64
2022/12/24 17:30:26;;;;;;;43.60;27.10;;;;;;;11.02;72.48;100154.10;105736;1307;21972;-60
2022/12/24 17:32:53;;;;;;;40.10;25.70;;;;;;;11.09;72.16;100152.23;105709;1308;22766;-60
2022/12/24 17:35:20;;;;;;;36.50;25.60;;;;;;;11.05;71.54;100148.80;105658;1294;21963;-64
2022/12/24 17:37:46;;;;;;;47.00;30.70;;;;;;;10.97;70.98;100148.77;105661;1309;21998;-60
2022/12/24 17:40:11;;;;;;;45.50;30.70;;;;;;;10.96;70.92;100145.79;105607;1310;22009;-65
2022/12/24 17:42:38;;;;;;;53.80;34.10;;;;;;;10.93;70.42;100141.98;105631;1310;21976;-64
2022/12/24 17:45:04;;;;;;;55.20;34.50;;;;;;;10.90;69.82;100138.86;105646;1309;21987;-65
2022/12/24 17:47:30;;;;;;;60.90;37.50;;;;;;;10.88;69.57;100136.61;105702;1309;22096;-61
2022/12/24 17:49:56;;;;;;;63.70;41.50;;;;;;;10.88;69.37;100135.20;105627;1309;22000;-65
2022/12/24 17:52:21;;;;;;;59.10;39.10;;;;;;;10.87;69.36;100135.76;105734;1305;21967;-65
2022/12/24 17:54:47;;;;;;;65.40;42.50;;;;;;;10.87;69.66;100139.09;105626;1307;21967;-64
2022/12/24 17:57:13;;;;;;;65.50;41.40;;;;;;;10.83;69.91;100134.41;105772;1308;21959;-64
2022/12/24 17:59:38;;;;;;;64.70;38.90;;;;;;;10.85;70.16;100134.21;105742;1309;24416;-64
2022/12/24 18:02:04;;;;;;;63.40;40.40;;;;;;;10.95;70.04;100130.19;105689;1306;21968;-65
2022/12/24 18:04:30;;;;;;;60.40;39.10;;;;;;;11.06;70.71;100124.19;105616;1306;21974;-65
2022/12/24 18:06:55;;;;;;;64.70;39.60;;;;;;;11.12;70.59;100121.45;105657;1307;21967;-64
2022/12/24 18:09:21;;;;;;;66.50;41.70;;;;;;;11.16;70.28;100121.20;105649;1309;21970;-65
2022/12/24 18:11:47;;;;;;;69.90;42.70;;;;;;;11.17;69.91;100124.33;105651;1310;21987;-65
2022/12/24 18:14:13;;;;;;;72.20;44.70;;;;;;;11.20;69.84;100123.23;105629;1308;21968;-60
2022/12/24 18:16:39;;;;;;;72.40;43.80;;;;;;;11.26;69.41;100128.38;105634;1310;21971;-65
2022/12/24 18:19:05;;;;;;;68.20;44.50;;;;;;;11.23;68.77;100131.61;105659;1310;22015;-61
2022/12/24 18:21:31;;;;;;;82.30;51.30;;;;;;;11.20;68.82;100135.70;105662;1302;21943;-64
2022/12/24 18:23:57;;;;;;;76.60;46.40;;;;;;;11.20;68.64;100138.69;105745;1307;22435;-65
2022/12/24 18:26:27;;;;;;;69.70;44.90;;;;;;;11.20;68.86;100142.20;105661;1309;21983;-66
2022/12/24 18:28:54;;;;;;;67.30;43.70;;;;;;;11.24;69.26;100141.59;105690;1310;21975;-64
2022/12/24 18:31:22;;;;;;;70.20;42.80;;;;;;;11.27;69.07;100142.77;105720;1310;23638;-60
2022/12/24 18:33:48;;;;;;;63.20;41.10;;;;;;;11.26;68.87;100142.95;105566;1312;21967;-65
2022/12/24 18:36:14;;;;;;;60.10;37.70;;;;;;;11.25;68.71;100146.66;105697;1309;21958;-65
2022/12/24 18:38:40;;;;;;;55.50;35.00;;;;;;;11.21;68.21;100153.25;105608;1309;21968;-66
2022/12/24 18:41:08;;;;;;;51.80;32.00;;;;;;;11.18;67.98;100156.45;105640;1312;21984;-66
2022/12/24 18:43:40;;;;;;;52.20;33.70;;;;;;;11.14;67.87;100157.04;105659;1305;21985;-66
2022/12/24 18:46:16;;;;;;;51.60;34.00;;;;;;;11.12;67.74;100158.31;105712;1311;21970;-66
2022/12/24 18:48:42;;;;;;;49.30;34.50;;;;;;;11.10;67.68;100160.63;105772;1309;21969;-62
2022/12/24 18:51:08;;;;;;;53.10;34.50;;;;;;;11.11;67.93;100164.99;105612;1308;21966;-66
2022/12/24 18:53:34;;;;;;;53.70;32.70;;;;;;;11.13;67.89;100165.86;105594;1311;21976;-66
2022/12/24 18:56:04;;;;;;;49.10;31.50;;;;;;;11.15;68.05;100168.27;105622;1297;21976;-64
2022/12/24 18:58:29;;;;;;;49.20;32.50;;;;;;;11.18;67.99;100175.95;105628;1307;23595;-64
2022/12/24 19:00:55;;;;;;;45.80;28.80;;;;;;;11.18;67.84;100177.19;105641;1311;21965;-61
2022/12/24 19:03:21;;;;;;;46.80;29.80;;;;;;;11.18;67.75;100182.64;105686;1307;23641;-65
2022/12/24 19:05:46;;;;;;;49.20;31.50;;;;;;;11.10;67.90;100186.27;105632;1307;21971;-65
2022/12/24 19:08:12;;;;;;;41.60;30.10;;;;;;;11.06;68.22;100187.04;105655;1311;21974;-61
2022/12/24 19:10:39;;;;;;;44.40;29.30;;;;;;;11.06;68.01;100186.69;105608;1306;22028;-61
2022/12/24 19:13:04;;;;;;;42.30;27.70;;;;;;;11.02;67.89;100188.53;105603;1308;21970;-61
2022/12/24 19:15:30;;;;;;;39.60;26.10;;;;;;;10.99;67.92;100191.23;105664;1307;21981;-61
2022/12/24 19:17:56;;;;;;;41.00;26.40;;;;;;;11.01;68.12;100195.04;105632;1308;21970;-61
2022/12/24 19:20:22;;;;;;;43.30;27.60;;;;;;;11.04;68.18;100193.57;105698;1307;21971;-61
2022/12/24 19:22:47;;;;;;;40.10;25.70;;;;;;;11.03;68.08;100197.98;105710;1308;21970;-61
2022/12/24 19:25:13;;;;;;;42.40;27.20;;;;;;;11.08;68.14;100197.90;105612;1307;21961;-65
2022/12/24 19:27:39;;;;;;;39.30;26.30;;;;;;;11.07;67.86;100194.41;105679;1307;21975;-62
2022/12/24 19:30:05;;;;;;;37.50;25.00;;;;;;;11.06;67.88;100196.70;105691;1307;22397;-61
2022/12/24 19:32:33;;;;;;;39.90;25.00;;;;;;;11.08;67.88;100200.70;105703;1307;22023;-65